createdAt,value
2017-05-10T00:00:05.661Z,935.02
2017-05-10T00:01:18.076Z,934.99
2017-05-10T00:02:30.494Z,935.02
2017-05-10T00:03:43.649Z,935.01
2017-05-10T00:04:56.462Z,935.02
2017-05-10T00:06:09.300Z,935.05
2017-05-10T00:07:22.091Z,935.1
2017-05-10T00:08:34.886Z,935.08
2017-05-10T00:09:47.706Z,935.1
2017-05-10T00:11:00.508Z,935.07
2017-05-10T00:12:13.308Z,935.15
2017-05-10T00:13:26.106Z,935.15
2017-05-10T00:14:38.905Z,935.19
2017-05-10T00:15:51.221Z,935.21
2017-05-10T00:17:04.014Z,935.22
2017-05-10T00:18:16.814Z,935.23
2017-05-10T00:19:29.131Z,935.29
2017-05-10T00:20:42.280Z,935.28
2017-05-10T00:21:55.076Z,935.29
2017-05-10T00:23:07.385Z,935.33
2017-05-10T00:24:19.704Z,935.35
2017-05-10T00:25:32.553Z,935.34
2017-05-10T00:26:45.351Z,935.34
2017-05-10T00:27:58.151Z,935.29
2017-05-10T00:29:10.948Z,935.31
2017-05-10T00:30:23.754Z,935.35
2017-05-10T00:31:36.077Z,935.33
2017-05-10T00:32:48.874Z,935.3
2017-05-10T00:34:01.202Z,935.32
2017-05-10T00:35:14.016Z,935.35
2017-05-10T00:36:26.861Z,935.35
2017-05-10T00:37:39.653Z,935.38
2017-05-10T00:38:52.453Z,935.39
2017-05-10T00:40:05.255Z,935.41
2017-05-10T00:41:18.051Z,935.38
2017-05-10T00:42:31.093Z,935.38
2017-05-10T00:43:43.894Z,935.38
2017-05-10T00:44:56.697Z,935.42
2017-05-10T00:46:09.018Z,935.41
2017-05-10T00:47:21.870Z,935.45
2017-05-10T00:48:34.670Z,935.42
2017-05-10T00:49:47.456Z,935.45
2017-05-10T00:51:00.244Z,935.46
2017-05-10T00:52:13.090Z,935.4
2017-05-10T00:53:25.884Z,935.46
2017-05-10T00:54:38.676Z,935.43
2017-05-10T00:55:50.978Z,935.46
2017-05-10T00:57:03.764Z,935.46
2017-05-10T00:58:16.551Z,935.44
2017-05-10T00:59:29.331Z,935.45
2017-05-10T01:00:41.632Z,935.43
2017-05-10T01:01:53.934Z,935.45
2017-05-10T01:03:06.722Z,935.44
2017-05-10T01:04:19.507Z,935.45
2017-05-10T01:05:32.296Z,935.44
2017-05-10T01:06:45.117Z,935.47
2017-05-10T01:07:57.906Z,935.47
2017-05-10T01:09:10.691Z,935.49
2017-05-10T01:10:23.480Z,935.49
2017-05-10T01:11:36.264Z,935.51
2017-05-10T01:12:49.051Z,935.53
2017-05-10T01:14:01.853Z,935.53
2017-05-10T01:15:14.840Z,935.5
2017-05-10T01:16:27.629Z,935.56
2017-05-10T01:17:39.446Z,935.57
2017-05-10T01:18:51.747Z,935.54
2017-05-10T01:20:04.832Z,935.54
2017-05-10T01:21:17.140Z,935.52
2017-05-10T01:22:29.940Z,935.52
2017-05-10T01:23:42.727Z,935.53
2017-05-10T01:24:55.515Z,935.56
2017-05-10T01:26:08.305Z,935.61
2017-05-10T01:27:21.090Z,935.57
2017-05-10T01:28:33.883Z,935.57
2017-05-10T01:29:46.666Z,935.6
2017-05-10T01:30:59.649Z,935.57
2017-05-10T01:32:12.431Z,935.59
2017-05-10T01:33:24.735Z,935.56
2017-05-10T01:34:37.538Z,935.56
2017-05-10T01:35:50.320Z,935.56
2017-05-10T01:37:02.665Z,935.57
2017-05-10T01:38:15.459Z,935.61
2017-05-10T01:39:28.245Z,935.58
2017-05-10T01:40:41.032Z,935.55
2017-05-10T01:43:20.681Z,935.55
2017-05-10T01:44:33.477Z,935.55
2017-05-10T01:45:46.267Z,935.58
2017-05-10T01:46:59.059Z,935.58
2017-05-10T01:48:11.399Z,935.63
2017-05-10T01:49:24.201Z,935.58
2017-05-10T01:50:36.990Z,935.58
2017-05-10T01:51:49.777Z,935.58
2017-05-10T01:53:02.279Z,935.57
2017-05-10T01:54:14.099Z,935.62
2017-05-10T01:55:26.887Z,935.61
2017-05-10T01:56:39.190Z,935.68
2017-05-10T01:57:51.974Z,935.68
2017-05-10T01:59:04.766Z,935.69
2017-05-10T02:00:17.551Z,935.7
2017-05-10T02:01:30.335Z,935.7
2017-05-10T02:02:42.641Z,935.71
2017-05-10T02:03:55.430Z,935.75
2017-05-10T02:05:07.734Z,935.76
2017-05-10T02:06:20.518Z,935.74
2017-05-10T02:07:33.304Z,935.72
2017-05-10T02:08:45.130Z,935.76
2017-05-10T02:09:57.912Z,935.75
2017-05-10T02:11:10.696Z,935.73
2017-05-10T02:12:23.488Z,935.81
2017-05-10T02:13:35.795Z,935.76
2017-05-10T02:14:48.106Z,935.76
2017-05-10T02:16:00.414Z,935.76
2017-05-10T02:17:13.198Z,935.77
2017-05-10T02:18:25.982Z,935.75
2017-05-10T02:19:39.134Z,935.73
2017-05-10T02:20:51.930Z,935.72
2017-05-10T02:22:04.237Z,935.73
2017-05-10T02:23:16.552Z,935.71
2017-05-10T02:24:29.347Z,935.75
2017-05-10T02:25:41.375Z,935.73
2017-05-10T02:26:53.688Z,935.77
2017-05-10T02:28:06.481Z,935.75
2017-05-10T02:29:19.275Z,935.83
2017-05-10T02:30:32.083Z,935.83
2017-05-10T02:31:44.875Z,935.85
2017-05-10T02:32:57.669Z,935.84
2017-05-10T02:34:10.467Z,935.84
2017-05-10T02:35:23.264Z,935.82
2017-05-10T02:36:36.059Z,935.83
2017-05-10T02:37:48.851Z,935.85
2017-05-10T02:39:01.648Z,935.88
2017-05-10T02:40:13.960Z,935.9
2017-05-10T02:41:26.268Z,935.88
2017-05-10T02:42:39.060Z,935.91
2017-05-10T02:43:51.852Z,935.86
2017-05-10T02:45:04.649Z,935.86
2017-05-10T02:46:17.444Z,935.86
2017-05-10T02:47:29.950Z,935.87
2017-05-10T02:48:42.268Z,935.9
2017-05-10T02:49:55.066Z,935.87
2017-05-10T02:51:07.866Z,935.87
2017-05-10T02:52:20.859Z,935.89
2017-05-10T02:53:33.652Z,935.93
2017-05-10T02:54:46.448Z,935.89
2017-05-10T02:55:59.239Z,935.94
2017-05-10T02:57:11.543Z,935.91
2017-05-10T02:58:24.336Z,935.88
2017-05-10T02:59:37.129Z,935.87
2017-05-10T03:00:49.931Z,935.93
2017-05-10T03:02:02.235Z,935.88
2017-05-10T03:03:14.537Z,935.92
2017-05-10T03:04:26.855Z,935.91
2017-05-10T03:05:39.171Z,935.92
2017-05-10T03:06:51.967Z,935.92
2017-05-10T03:08:04.749Z,935.91
2017-05-10T03:09:17.256Z,935.9
2017-05-10T03:10:30.068Z,935.88
2017-05-10T03:11:42.856Z,935.92
2017-05-10T03:12:55.645Z,935.92
2017-05-10T03:14:08.431Z,935.88
2017-05-10T03:15:21.228Z,935.92
2017-05-10T03:16:34.026Z,935.93
2017-05-10T03:17:46.818Z,935.91
2017-05-10T03:18:59.612Z,935.95
2017-05-10T03:20:11.923Z,935.94
2017-05-10T03:21:24.716Z,935.91
2017-05-10T03:22:37.510Z,935.92
2017-05-10T03:23:50.294Z,935.89
2017-05-10T03:25:03.283Z,935.96
2017-05-10T03:26:16.076Z,935.89
2017-05-10T03:27:28.860Z,935.9
2017-05-10T03:28:41.653Z,935.96
2017-05-10T03:29:54.440Z,935.92
2017-05-10T03:31:07.052Z,935.93
2017-05-10T03:32:19.363Z,935.91
2017-05-10T03:33:32.154Z,935.92
2017-05-10T03:34:44.475Z,935.92
2017-05-10T03:35:56.992Z,935.91
2017-05-10T03:37:09.786Z,935.89
2017-05-10T03:38:22.582Z,935.92
2017-05-10T03:39:35.380Z,935.91
2017-05-10T03:40:48.178Z,935.91
2017-05-10T03:42:01.275Z,935.89
2017-05-10T03:43:13.576Z,935.86
2017-05-10T03:44:26.360Z,935.88
2017-05-10T03:45:38.667Z,935.88
2017-05-10T03:46:51.712Z,935.86
2017-05-10T03:48:04.521Z,935.86
2017-05-10T03:49:16.824Z,935.86
2017-05-10T03:50:29.609Z,935.87
2017-05-10T03:51:42.397Z,935.9
2017-05-10T03:52:55.480Z,935.88
2017-05-10T03:54:08.272Z,935.85
2017-05-10T03:55:20.584Z,935.81
2017-05-10T03:56:33.377Z,935.83
2017-05-10T03:57:46.156Z,935.84
2017-05-10T03:58:58.955Z,935.81
2017-05-10T04:00:11.734Z,935.77
2017-05-10T04:01:24.514Z,935.79
2017-05-10T04:02:37.299Z,935.79
2017-05-10T04:03:49.906Z,935.8
2017-05-10T04:05:02.692Z,935.79
2017-05-10T04:06:15.484Z,935.8
2017-05-10T04:07:28.267Z,935.83
2017-05-10T04:08:41.055Z,935.85
2017-05-10T04:09:53.846Z,935.84
2017-05-10T04:11:06.636Z,935.83
2017-05-10T04:12:18.934Z,935.83
2017-05-10T04:13:31.718Z,935.84
2017-05-10T04:14:44.706Z,935.88
2017-05-10T04:15:57.489Z,935.86
2017-05-10T04:17:10.273Z,935.86
2017-05-10T04:18:23.059Z,935.87
2017-05-10T04:19:35.900Z,935.85
2017-05-10T04:20:48.251Z,935.84
2017-05-10T04:22:01.036Z,935.86
2017-05-10T04:23:13.338Z,935.83
2017-05-10T04:24:26.122Z,935.85
2017-05-10T04:25:39.105Z,935.88
2017-05-10T04:26:51.888Z,935.91
2017-05-10T04:28:04.202Z,935.88
2017-05-10T04:29:16.986Z,935.88
2017-05-10T04:30:29.489Z,935.84
2017-05-10T04:31:42.273Z,935.83
2017-05-10T04:32:55.058Z,935.85
2017-05-10T04:34:07.848Z,935.82
2017-05-10T04:35:20.635Z,935.86
2017-05-10T04:36:32.939Z,935.82
2017-05-10T04:37:45.732Z,935.83
2017-05-10T04:38:58.532Z,935.85
2017-05-10T04:40:11.325Z,935.77
2017-05-10T04:41:24.109Z,935.79
2017-05-10T04:42:36.903Z,935.88
2017-05-10T04:43:49.222Z,935.86
2017-05-10T04:45:02.014Z,935.84
2017-05-10T04:46:14.346Z,935.79
2017-05-10T04:47:27.154Z,935.79
2017-05-10T04:48:38.982Z,935.77
2017-05-10T04:49:51.302Z,935.78
2017-05-10T04:51:03.606Z,935.76
2017-05-10T04:52:16.696Z,935.78
2017-05-10T04:53:29.492Z,935.75
2017-05-10T04:54:42.297Z,935.78
2017-05-10T04:55:55.093Z,935.8
2017-05-10T04:57:06.912Z,935.82
2017-05-10T04:58:19.224Z,935.8
2017-05-10T04:59:32.026Z,935.8
2017-05-10T05:00:44.815Z,935.79
2017-05-10T05:01:57.123Z,935.75
2017-05-10T05:03:10.213Z,935.73
2017-05-10T05:04:23.008Z,935.72
2017-05-10T05:05:35.808Z,935.67
2017-05-10T05:06:48.112Z,935.7
2017-05-10T05:08:00.900Z,935.73
2017-05-10T05:09:13.214Z,935.71
2017-05-10T05:10:26.010Z,935.68
2017-05-10T05:11:38.803Z,935.71
2017-05-10T05:12:51.593Z,935.74
2017-05-10T05:14:04.386Z,935.73
2017-05-10T05:15:16.700Z,935.71
2017-05-10T05:16:29.485Z,935.75
2017-05-10T05:17:42.284Z,935.76
2017-05-10T05:18:55.082Z,935.81
2017-05-10T05:20:08.087Z,935.79
2017-05-10T05:21:20.403Z,935.82
2017-05-10T05:22:33.191Z,935.8
2017-05-10T05:23:45.988Z,935.78
2017-05-10T05:24:59.091Z,935.8
2017-05-10T05:26:11.896Z,935.77
2017-05-10T05:27:24.686Z,935.81
2017-05-10T05:28:37.478Z,935.79
2017-05-10T05:29:50.276Z,935.78
2017-05-10T05:31:03.071Z,935.77
2017-05-10T05:32:15.861Z,935.78
2017-05-10T05:33:28.651Z,935.8
2017-05-10T05:34:41.445Z,935.78
2017-05-10T05:35:54.248Z,935.8
2017-05-10T05:37:06.556Z,935.77
2017-05-10T05:38:19.340Z,935.75
2017-05-10T05:39:31.656Z,935.81
2017-05-10T05:40:44.455Z,935.75
2017-05-10T05:41:57.455Z,935.73
2017-05-10T05:43:10.245Z,935.74
2017-05-10T05:44:22.555Z,935.72
2017-05-10T05:45:35.423Z,935.71
2017-05-10T05:46:48.218Z,935.71
2017-05-10T05:48:01.002Z,935.75
2017-05-10T05:49:13.780Z,935.75
2017-05-10T05:50:26.569Z,935.72
2017-05-10T05:51:39.364Z,935.67
2017-05-10T05:52:51.964Z,935.63
2017-05-10T05:54:04.754Z,935.61
2017-05-10T05:55:17.063Z,935.58
2017-05-10T05:56:29.864Z,935.62
2017-05-10T05:57:42.853Z,935.65
2017-05-10T05:58:55.639Z,935.66
2017-05-10T06:00:08.428Z,935.71
2017-05-10T06:01:20.744Z,935.66
2017-05-10T06:02:33.526Z,935.68
2017-05-10T06:03:46.506Z,935.65
2017-05-10T06:04:58.808Z,935.67
2017-05-10T06:06:11.114Z,935.71
2017-05-10T06:07:23.895Z,935.72
2017-05-10T06:08:36.977Z,935.72
2017-05-10T06:09:49.278Z,935.69
2017-05-10T06:11:02.058Z,935.7
2017-05-10T06:12:14.361Z,935.67
2017-05-10T06:13:27.144Z,935.69
2017-05-10T06:14:39.443Z,935.68
2017-05-10T06:15:51.742Z,935.63
2017-05-10T06:17:04.523Z,935.65
2017-05-10T06:18:17.304Z,935.65
2017-05-10T06:19:30.087Z,935.64
2017-05-10T06:20:42.874Z,935.61
2017-05-10T06:21:55.662Z,935.63
2017-05-10T06:23:07.967Z,935.62
2017-05-10T06:24:19.302Z,935.62
2017-05-10T06:25:32.292Z,935.56
2017-05-10T06:26:45.077Z,935.56
2017-05-10T06:27:57.865Z,935.53
2017-05-10T06:29:10.657Z,935.53
2017-05-10T06:30:23.642Z,935.52
2017-05-10T06:31:35.459Z,935.53
2017-05-10T06:32:48.242Z,935.55
2017-05-10T06:34:01.026Z,935.54
2017-05-10T06:35:13.334Z,935.56
2017-05-10T06:36:25.933Z,935.52
2017-05-10T06:37:38.712Z,935.55
2017-05-10T06:38:51.496Z,935.56
2017-05-10T06:40:04.279Z,935.49
2017-05-10T06:41:16.782Z,935.55
2017-05-10T06:42:29.567Z,935.55
2017-05-10T06:43:42.354Z,935.53
2017-05-10T06:44:54.660Z,935.51
2017-05-10T06:46:07.441Z,935.53
2017-05-10T06:47:19.258Z,935.48
2017-05-10T06:48:32.042Z,935.47
2017-05-10T06:49:44.828Z,935.43
2017-05-10T06:50:57.130Z,935.39
2017-05-10T06:52:09.912Z,935.43
2017-05-10T06:53:22.210Z,935.4
2017-05-10T06:54:34.509Z,935.44
2017-05-10T06:55:47.292Z,935.4
2017-05-10T06:57:00.071Z,935.45
2017-05-10T06:58:12.673Z,935.41
2017-05-10T06:59:25.463Z,935.43
2017-05-10T07:00:38.246Z,935.4
2017-05-10T07:01:51.028Z,935.43
2017-05-10T07:03:03.810Z,935.43
2017-05-10T07:04:16.109Z,935.42
2017-05-10T07:05:28.894Z,935.41
2017-05-10T07:06:41.681Z,935.4
2017-05-10T07:07:54.466Z,935.45
2017-05-10T07:09:07.453Z,935.45
2017-05-10T07:10:20.235Z,935.45
2017-05-10T07:11:33.018Z,935.45
2017-05-10T07:12:45.812Z,935.49
2017-05-10T07:13:58.899Z,935.48
2017-05-10T07:15:11.213Z,935.47
2017-05-10T07:16:24.004Z,935.39
2017-05-10T07:17:36.787Z,935.39
2017-05-10T07:18:48.605Z,935.38
2017-05-10T07:19:59.944Z,935.43
2017-05-10T07:21:11.768Z,935.4
2017-05-10T07:22:24.550Z,935.41
2017-05-10T07:23:37.331Z,935.35
2017-05-10T07:24:50.419Z,935.36
2017-05-10T07:26:03.205Z,935.37
2017-05-10T07:27:16.026Z,935.35
2017-05-10T07:28:28.327Z,935.37
2017-05-10T07:29:40.629Z,935.37
2017-05-10T07:30:53.436Z,935.4
2017-05-10T07:32:06.219Z,935.39
2017-05-10T07:33:18.523Z,935.39
2017-05-10T07:34:31.302Z,935.43
2017-05-10T07:35:44.083Z,935.43
2017-05-10T07:36:56.861Z,935.51
2017-05-10T07:38:08.200Z,935.48
2017-05-10T07:39:20.533Z,935.49
2017-05-10T07:40:33.309Z,935.49
2017-05-10T07:41:46.434Z,935.51
2017-05-10T07:42:59.215Z,935.51
2017-05-10T07:44:11.514Z,935.54
2017-05-10T07:45:24.297Z,935.51
2017-05-10T07:46:36.599Z,935.5
2017-05-10T07:47:48.895Z,935.47
2017-05-10T07:49:01.680Z,935.46
2017-05-10T07:50:13.980Z,935.45
2017-05-10T07:51:26.777Z,935.51
2017-05-10T07:52:39.857Z,935.56
2017-05-10T07:53:52.168Z,935.51
2017-05-10T07:55:04.950Z,935.5
2017-05-10T07:56:17.736Z,935.48
2017-05-10T07:57:30.718Z,935.48
2017-05-10T07:58:43.497Z,935.47
2017-05-10T07:59:56.290Z,935.46
2017-05-10T08:01:08.115Z,935.51
2017-05-10T08:02:19.936Z,935.53
2017-05-10T08:03:32.922Z,935.56
2017-05-10T08:04:45.710Z,935.53
2017-05-10T08:05:58.494Z,935.58
2017-05-10T08:07:11.272Z,935.57
2017-05-10T08:08:24.052Z,935.59
2017-05-10T08:09:36.833Z,935.63
2017-05-10T08:10:49.131Z,935.62
2017-05-10T08:12:01.914Z,935.63
2017-05-10T08:13:14.214Z,935.69
2017-05-10T08:14:27.196Z,935.71
2017-05-10T08:15:39.975Z,935.73
2017-05-10T08:16:52.754Z,935.75
2017-05-10T08:18:05.053Z,935.79
2017-05-10T08:19:17.352Z,935.82
2017-05-10T08:20:30.135Z,935.84
2017-05-10T08:21:42.910Z,935.89
2017-05-10T08:22:55.694Z,935.88
2017-05-10T08:24:08.000Z,935.89
2017-05-10T08:25:19.825Z,935.9
2017-05-10T08:26:32.124Z,935.91
2017-05-10T08:27:44.427Z,935.9
2017-05-10T08:28:56.723Z,935.88
2017-05-10T08:30:09.218Z,935.86
2017-05-10T08:31:21.998Z,935.88
2017-05-10T08:32:34.295Z,935.85
2017-05-10T08:33:46.605Z,935.89
2017-05-10T08:34:59.391Z,935.86
2017-05-10T08:36:11.510Z,935.96
2017-05-10T08:37:23.812Z,935.99
2017-05-10T08:38:36.110Z,935.99
2017-05-10T08:39:48.422Z,936.01
2017-05-10T08:41:01.212Z,936.01
2017-05-10T08:42:14.034Z,936.01
2017-05-10T08:43:26.825Z,936.01
2017-05-10T08:44:39.614Z,936
2017-05-10T08:45:51.917Z,935.97
2017-05-10T08:47:05.004Z,935.99
2017-05-10T08:48:16.823Z,936.04
2017-05-10T08:49:29.127Z,936.07
2017-05-10T08:50:41.917Z,936.06
2017-05-10T08:51:55.011Z,936.07
2017-05-10T08:53:07.797Z,936.08
2017-05-10T08:54:20.100Z,936.06
2017-05-10T08:55:31.923Z,936.09
2017-05-10T08:56:44.709Z,936.07
2017-05-10T08:57:57.210Z,936.13
2017-05-10T08:59:09.992Z,936.14
2017-05-10T09:00:22.297Z,936.12
2017-05-10T09:01:35.082Z,936.17
2017-05-10T09:02:47.869Z,936.18
2017-05-10T09:04:00.685Z,936.19
2017-05-10T09:05:13.470Z,936.22
2017-05-10T09:06:25.769Z,936.25
2017-05-10T09:07:38.559Z,936.24
2017-05-10T09:08:51.341Z,936.28
2017-05-10T09:10:03.642Z,936.26
2017-05-10T09:11:15.459Z,936.22
2017-05-10T09:12:28.241Z,936.27
2017-05-10T09:13:41.234Z,936.16
2017-05-10T09:14:53.532Z,936.17
2017-05-10T09:16:06.313Z,936.2
2017-05-10T09:17:19.095Z,936.15
2017-05-10T09:18:31.878Z,936.17
2017-05-10T09:19:44.659Z,936.21
2017-05-10T09:20:57.443Z,936.23
2017-05-10T09:22:09.747Z,936.22
2017-05-10T09:23:22.531Z,936.25
2017-05-10T09:24:35.510Z,936.23
2017-05-10T09:25:47.809Z,936.23
2017-05-10T09:27:00.588Z,936.23
2017-05-10T09:28:12.887Z,936.26
2017-05-10T09:29:25.662Z,936.29
2017-05-10T09:30:38.263Z,936.32
2017-05-10T09:31:51.045Z,936.35
2017-05-10T09:33:03.342Z,936.41
2017-05-10T09:34:16.124Z,936.42
2017-05-10T09:35:29.112Z,936.44
2017-05-10T09:36:41.930Z,936.48
2017-05-10T09:37:54.708Z,936.49
2017-05-10T09:39:07.517Z,936.5
2017-05-10T09:40:20.297Z,936.48
2017-05-10T09:41:33.281Z,936.49
2017-05-10T09:42:45.598Z,936.52
2017-05-10T09:43:58.376Z,936.55
2017-05-10T09:45:11.166Z,936.55
2017-05-10T09:46:22.981Z,936.61
2017-05-10T09:47:35.763Z,936.59
2017-05-10T09:48:48.541Z,936.62
2017-05-10T09:50:00.841Z,936.63
2017-05-10T09:51:13.137Z,936.64
2017-05-10T09:52:26.116Z,936.65
2017-05-10T09:53:38.905Z,936.65
2017-05-10T09:54:51.697Z,936.67
2017-05-10T09:56:03.994Z,936.66
2017-05-10T09:57:16.775Z,936.68
2017-05-10T09:58:29.075Z,936.72
2017-05-10T09:59:41.375Z,936.71
2017-05-10T10:00:53.677Z,936.72
2017-05-10T10:02:06.465Z,936.76
2017-05-10T10:03:19.443Z,936.78
2017-05-10T10:04:31.742Z,936.77
2017-05-10T10:05:44.523Z,936.77
2017-05-10T10:06:57.308Z,936.79
2017-05-10T10:08:09.129Z,936.82
2017-05-10T10:09:21.914Z,936.77
2017-05-10T10:10:34.694Z,936.79
2017-05-10T10:11:46.992Z,936.78
2017-05-10T10:12:59.290Z,936.75
2017-05-10T10:14:12.272Z,936.82
2017-05-10T10:15:24.592Z,936.81
2017-05-10T10:16:37.375Z,936.84
2017-05-10T10:17:49.677Z,936.79
2017-05-10T10:19:01.985Z,936.83
2017-05-10T10:20:14.280Z,936.89
2017-05-10T10:21:27.060Z,936.89
2017-05-10T10:22:39.845Z,936.93
2017-05-10T10:23:52.628Z,936.96
2017-05-10T10:25:05.135Z,937
2017-05-10T10:26:17.431Z,937
2017-05-10T10:27:30.218Z,936.99
2017-05-10T10:28:42.039Z,937.02
2017-05-10T10:29:55.020Z,937.01
2017-05-10T10:31:07.316Z,937
2017-05-10T10:32:19.624Z,937.02
2017-05-10T10:33:32.404Z,937.08
2017-05-10T10:34:45.190Z,937.1
2017-05-10T10:35:57.972Z,937.12
2017-05-10T10:37:09.797Z,937.17
2017-05-10T10:38:21.625Z,937.18
2017-05-10T10:39:33.925Z,937.23
2017-05-10T10:40:46.046Z,937.22
2017-05-10T10:41:58.837Z,937.26
2017-05-10T10:43:11.145Z,937.28
2017-05-10T10:44:23.455Z,937.28
2017-05-10T10:45:35.790Z,937.31
2017-05-10T10:46:48.095Z,937.32
2017-05-10T10:48:00.887Z,937.32
2017-05-10T10:49:13.667Z,937.36
2017-05-10T10:50:26.488Z,937.39
2017-05-10T10:51:39.469Z,937.37
2017-05-10T10:52:51.294Z,937.39
2017-05-10T10:54:04.087Z,937.42
2017-05-10T10:55:16.873Z,937.4
2017-05-10T10:56:29.186Z,937.41
2017-05-10T10:57:41.980Z,937.41
2017-05-10T10:58:54.290Z,937.45
2017-05-10T11:00:06.597Z,937.46
2017-05-10T11:01:19.381Z,937.45
2017-05-10T11:02:31.993Z,937.46
2017-05-10T11:03:44.820Z,937.46
2017-05-10T11:04:57.600Z,937.45
2017-05-10T11:06:10.379Z,937.46
2017-05-10T11:07:23.163Z,937.41
2017-05-10T11:08:35.684Z,937.43
2017-05-10T11:09:48.468Z,937.47
2017-05-10T11:11:01.251Z,937.5
2017-05-10T11:12:13.083Z,937.51
2017-05-10T11:13:25.926Z,937.52
2017-05-10T11:14:38.237Z,937.55
2017-05-10T11:15:51.048Z,937.51
2017-05-10T11:17:03.841Z,937.55
2017-05-10T11:18:16.150Z,937.5
2017-05-10T11:19:28.938Z,937.5
2017-05-10T11:20:41.719Z,937.56
2017-05-10T11:21:54.502Z,937.57
2017-05-10T11:23:07.283Z,937.56
2017-05-10T11:24:19.781Z,937.58
2017-05-10T11:25:31.602Z,937.59
2017-05-10T11:26:44.381Z,937.58
2017-05-10T11:27:57.161Z,937.57
2017-05-10T11:29:09.951Z,937.55
2017-05-10T11:30:22.763Z,937.59
2017-05-10T11:31:35.543Z,937.58
2017-05-10T11:32:48.332Z,937.6
2017-05-10T11:34:01.114Z,937.6
2017-05-10T11:35:13.901Z,937.62
2017-05-10T11:36:26.198Z,937.61
2017-05-10T11:37:38.979Z,937.58
2017-05-10T11:38:51.276Z,937.64
2017-05-10T11:40:04.055Z,937.71
2017-05-10T11:41:17.048Z,937.68
2017-05-10T11:42:28.865Z,937.69
2017-05-10T11:43:41.656Z,937.7
2017-05-10T11:44:54.444Z,937.68
2017-05-10T11:46:06.942Z,937.69
2017-05-10T11:47:19.249Z,937.68
2017-05-10T11:48:31.550Z,937.72
2017-05-10T11:49:44.332Z,937.72
2017-05-10T11:50:57.118Z,937.72
2017-05-10T11:52:10.103Z,937.66
2017-05-10T11:53:22.887Z,937.67
2017-05-10T11:54:35.675Z,937.63
2017-05-10T11:55:47.978Z,937.6
2017-05-10T11:57:00.781Z,937.65
2017-05-10T11:58:13.564Z,937.67
2017-05-10T11:59:25.868Z,937.67
2017-05-10T12:00:38.654Z,937.68
2017-05-10T12:01:50.477Z,937.72
2017-05-10T12:03:03.414Z,937.75
2017-05-10T12:04:16.209Z,937.77
2017-05-10T12:05:29.008Z,937.78
2017-05-10T12:11:44.812Z,937.8
2017-05-10T12:12:57.603Z,937.83
2017-05-10T12:14:10.391Z,937.81
2017-05-10T12:15:22.224Z,937.83
2017-05-10T12:16:35.012Z,937.81
2017-05-10T12:17:47.803Z,937.84
2017-05-10T12:19:00.607Z,937.87
2017-05-10T12:20:13.441Z,937.9
2017-05-10T12:21:25.751Z,937.91
2017-05-10T12:22:38.537Z,937.89
2017-05-10T12:23:51.335Z,937.92
2017-05-10T12:25:04.138Z,937.95
2017-05-10T12:26:16.929Z,937.94
2017-05-10T12:27:28.748Z,937.94
2017-05-10T12:28:41.735Z,937.98
2017-05-10T12:29:54.526Z,937.99
2017-05-10T12:31:07.324Z,938.01
2017-05-10T12:32:20.119Z,938.01
2017-05-10T12:33:32.422Z,937.99
2017-05-10T12:34:44.742Z,938.04
2017-05-10T12:35:57.544Z,938.02
2017-05-10T12:37:10.339Z,938.04
2017-05-10T12:38:22.160Z,938.08
2017-05-10T12:39:34.464Z,938.12
2017-05-10T12:40:46.780Z,938.1
2017-05-10T12:41:59.567Z,938.1
2017-05-10T12:43:11.879Z,938.1
2017-05-10T12:44:24.393Z,938.12
2017-05-10T12:45:37.186Z,938.11
2017-05-10T12:46:49.502Z,938.14
2017-05-10T12:48:02.296Z,938.16
2017-05-10T12:49:15.114Z,938.15
2017-05-10T12:50:27.923Z,938.17
2017-05-10T12:51:40.719Z,938.13
2017-05-10T12:52:52.547Z,938.14
2017-05-10T12:54:04.855Z,938.13
2017-05-10T12:55:17.161Z,938.16
2017-05-10T12:56:29.964Z,938.16
2017-05-10T12:57:42.770Z,938.13
2017-05-10T12:58:55.564Z,938.12
2017-05-10T13:00:08.346Z,938.08
2017-05-10T13:01:20.478Z,938.13
2017-05-10T13:02:33.283Z,938.13
2017-05-10T13:03:46.072Z,938.1
2017-05-10T13:04:58.386Z,938.1
2017-05-10T13:07:38.051Z,938.1
2017-05-10T13:08:50.847Z,938.08
2017-05-10T13:10:03.635Z,938.1
2017-05-10T13:11:16.471Z,938.09
2017-05-10T13:12:28.792Z,938.1
2017-05-10T13:13:41.592Z,938.1
2017-05-10T13:14:54.389Z,938.1
2017-05-10T13:16:07.177Z,938.16
2017-05-10T13:17:20.199Z,938.15
2017-05-10T13:18:32.515Z,938.14
2017-05-10T13:19:44.832Z,938.18
2017-05-10T13:20:57.619Z,938.19
2017-05-10T13:22:10.408Z,938.24
2017-05-10T13:23:23.199Z,938.2
2017-05-10T13:24:35.505Z,938.22
2017-05-10T13:25:47.807Z,938.17
2017-05-10T13:27:00.599Z,938.14
2017-05-10T13:28:13.543Z,938.14
2017-05-10T13:29:26.323Z,938.13
2017-05-10T13:30:39.101Z,938.08
2017-05-10T13:31:51.403Z,938.09
2017-05-10T13:33:04.234Z,938.11
2017-05-10T13:34:17.024Z,938.07
2017-05-10T13:35:29.340Z,938.07
2017-05-10T13:36:42.133Z,938.03
2017-05-10T13:37:54.930Z,937.98
2017-05-10T13:39:07.932Z,938.03
2017-05-10T13:40:20.719Z,938.02
2017-05-10T13:41:33.503Z,937.9
2017-05-10T13:42:46.336Z,937.93
2017-05-10T13:43:58.647Z,937.9
2017-05-10T13:45:11.447Z,937.94
2017-05-10T13:46:24.244Z,937.91
2017-05-10T13:47:36.549Z,937.89
2017-05-10T13:48:49.346Z,937.88
2017-05-10T13:50:01.662Z,937.87
2017-05-10T13:51:13.970Z,937.84
2017-05-10T13:52:26.767Z,937.8
2017-05-10T13:53:39.585Z,937.82
2017-05-10T13:54:52.684Z,937.79
2017-05-10T13:56:05.485Z,937.82
2017-05-10T13:57:17.793Z,937.77
2017-05-10T13:58:30.610Z,937.72
2017-05-10T13:59:43.418Z,937.68
2017-05-10T14:00:56.317Z,937.73
2017-05-10T14:02:08.630Z,937.7
2017-05-10T14:03:20.947Z,937.7
2017-05-10T14:04:33.765Z,937.69
2017-05-10T14:05:46.382Z,937.65
2017-05-10T14:06:58.726Z,937.63
2017-05-10T14:08:11.525Z,937.64
2017-05-10T14:09:23.839Z,937.65
2017-05-10T14:10:36.647Z,937.64
2017-05-10T14:11:49.152Z,937.63
2017-05-10T14:13:01.944Z,937.61
2017-05-10T14:14:13.774Z,937.67
2017-05-10T14:15:26.079Z,937.63
2017-05-10T14:16:38.865Z,937.61
2017-05-10T14:17:51.684Z,937.6
2017-05-10T14:19:04.473Z,937.55
2017-05-10T14:20:17.259Z,937.62
2017-05-10T14:21:30.048Z,937.6
2017-05-10T14:22:42.355Z,937.59
2017-05-10T14:23:54.657Z,937.58
2017-05-10T14:25:07.444Z,937.61
2017-05-10T14:26:19.746Z,937.55
2017-05-10T14:27:32.085Z,937.53
2017-05-10T14:28:44.870Z,937.49
2017-05-10T14:29:57.654Z,937.43
2017-05-10T14:31:10.438Z,937.41
2017-05-10T14:32:23.237Z,937.42
2017-05-10T14:33:36.030Z,937.4
2017-05-10T14:34:48.810Z,937.38
2017-05-10T14:36:01.158Z,937.36
2017-05-10T14:37:13.462Z,937.34
2017-05-10T14:38:26.247Z,937.29
2017-05-10T14:39:39.040Z,937.26
2017-05-10T14:40:51.346Z,937.25
2017-05-10T14:42:04.134Z,937.29
2017-05-10T14:43:16.925Z,937.26
2017-05-10T14:44:30.017Z,937.25
2017-05-10T14:45:42.322Z,937.21
2017-05-10T14:46:54.640Z,937.17
2017-05-10T14:48:07.421Z,937.2
2017-05-10T14:49:19.721Z,937.17
2017-05-10T14:50:32.505Z,937.15
2017-05-10T14:51:44.812Z,937.13
2017-05-10T14:52:57.604Z,937.12
2017-05-10T14:54:10.393Z,937.12
2017-05-10T14:55:23.233Z,937.06
2017-05-10T14:56:36.020Z,937.04
2017-05-10T14:57:48.816Z,936.98
2017-05-10T14:59:01.125Z,937.01
2017-05-10T15:00:14.213Z,936.97
2017-05-10T15:01:27.012Z,936.94
2017-05-10T15:02:39.801Z,936.96
2017-05-10T15:03:52.589Z,936.91
2017-05-10T15:05:04.894Z,936.93
2017-05-10T15:06:17.198Z,936.94
2017-05-10T15:07:29.982Z,936.88
2017-05-10T15:08:42.767Z,936.85
2017-05-10T15:09:55.551Z,936.81
2017-05-10T15:11:08.539Z,936.77
2017-05-10T15:12:21.322Z,936.75
2017-05-10T15:13:34.103Z,936.74
2017-05-10T15:14:46.400Z,936.71
2017-05-10T15:15:58.224Z,936.66